메인 페이지
METAR-TAF:

METAR-TAF

공항 :

Tarapoto, 페루

위도: 06-27S, 경도: 076-23W, 고도: 281m

현재 날씨관측

예보는 4 시간 45분 전, 02:00시(UTC)에 발표되었습니다.
동북동3kt
온도 25°C
습도 94%
기압 1011 hPa
시정 10km 이상
고도 2500ft 상공 구름 조금

METAR: SPST 220200Z 06003KT 9999 FEW025 25/24 Q1011 RMK PP000

시각: 01:45 (06:45 UTC)

예보

예보는 7 시간 45분 전, 23:00시(UTC)에 발표되었습니다.
예보 대상 시간: 22일 00시부터 22일 24시까지 (UTC)
7kt
시정 10km 이상
고도 2000ft 상공 구름 보통
일시적
22일 11시부터 22일 13시까지 (UTC)
여러 방향의 바람 2kt
시정: 8000m
고도 1000ft 상공 구름 보통
전환 중
22일 13시부터 22일 15시까지 (UTC)
남동8kt
시정: 8000m
고도 1500ft 상공 구름 보통, 타워링 적운.
고도 10000ft 상공 구름 많음
일시적
22일 21시부터 22일 24시까지 (UTC)
북북동10kt
시정 10km 이상
고도 2000ft 상공 구름 보통

TAF: SPST 212300Z 2200/2224 01007KT 9999 SCT020 TX34/2219Z TN22/2211Z TEMPO 2211/2213 VRB02KT 8000 RA SCT010 BK030 BECMG 2213/2215 14008KT 8000 RA SCT015TCU BKN100 TEMPO 2221/2224 02010KT 9999 SCT020

4,000개 이상의 공항 관측 자료 및 예보 (METAR 및 TAF 보고).

지도상에서 검색 가능한 기상관측소가 노란 점과 빨간 점으로 표시되어 있습니다.

기상관측소 명을 보려면 표시 위로 마우스를 이동하세요.

날씨 관측과 예보를 보려면 클릭하세요.

지도 변경 : 확대하려면 엑스 표시가 있는 녹색 버튼, 축소하려면 빼기 표시가 있는 녹색 버튼, 다음 페이지의 지도를 보려면 녹색 화살표를 클릭하세요.


METAR-TAF: